sensor_id;sensor_type;location;lat;lon;timestamp;pressure;altitude;pressure_sealevel;temperature;humidity
27014;BME280;14556;52.222;4.510;2023-06-14T00:00:33;100797.00;;;16.74;100.00
27014;BME280;14556;52.222;4.510;2023-06-14T00:03:01;100788.97;;;16.62;100.00
27014;BME280;14556;52.222;4.510;2023-06-14T00:05:30;100795.03;;;16.70;100.00
27014;BME280;14556;52.222;4.510;2023-06-14T00:08:05;100794.47;;;16.67;100.00
27014;BME280;14556;52.222;4.510;2023-06-14T00:10:34;100788.16;;;16.62;100.00
27014;BME280;14556;52.222;4.510;2023-06-14T00:13:02;100789.44;;;16.59;100.00
27014;BME280;14556;52.222;4.510;2023-06-14T00:15:30;100793.69;;;16.55;100.00
27014;BME280;14556;52.222;4.510;2023-06-14T00:17:57;100806.13;;;16.56;100.00
27014;BME280;14556;52.222;4.510;2023-06-14T00:20:28;100798.97;;;16.50;100.00
27014;BME280;14556;52.222;4.510;2023-06-14T00:22:55;100796.66;;;16.41;100.00
27014;BME280;14556;52.222;4.510;2023-06-14T00:25:24;100795.03;;;16.40;100.00
27014;BME280;14556;52.222;4.510;2023-06-14T00:27:56;100798.63;;;16.46;100.00
27014;BME280;14556;52.222;4.510;2023-06-14T00:30:23;100798.41;;;16.48;100.00
27014;BME280;14556;52.222;4.510;2023-06-14T00:32:50;100799.13;;;16.43;100.00
27014;BME280;14556;52.222;4.510;2023-06-14T00:35:18;100802.53;;;16.38;100.00
27014;BME280;14556;52.222;4.510;2023-06-14T00:37:45;100798.31;;;16.30;100.00
27014;BME280;14556;52.222;4.510;2023-06-14T00:40:11;100801.84;;;16.31;100.00
27014;BME280;14556;52.222;4.510;2023-06-14T00:42:38;100784.28;;;16.28;100.00
27014;BME280;14556;52.222;4.510;2023-06-14T00:45:05;100793.06;;;16.24;100.00
27014;BME280;14556;52.222;4.510;2023-06-14T00:47:32;100794.81;;;16.30;100.00
27014;BME280;14556;52.222;4.510;2023-06-14T00:49:58;100789.31;;;16.25;100.00
27014;BME280;14556;52.222;4.510;2023-06-14T00:52:26;100781.47;;;16.23;100.00
27014;BME280;14556;52.222;4.510;2023-06-14T00:54:54;100783.94;;;16.25;100.00
27014;BME280;14556;52.222;4.510;2023-06-14T00:57:20;100781.34;;;16.30;100.00
27014;BME280;14556;52.222;4.510;2023-06-14T00:59:48;100780.75;;;16.28;100.00
27014;BME280;14556;52.222;4.510;2023-06-14T01:02:15;100789.78;;;16.34;100.00
27014;BME280;14556;52.222;4.510;2023-06-14T01:04:44;100769.84;;;16.23;100.00
27014;BME280;14556;52.222;4.510;2023-06-14T01:07:21;100790.56;;;16.34;100.00
27014;BME280;14556;52.222;4.510;2023-06-14T01:13:01;100775.25;;;16.23;100.00
27014;BME280;14556;52.222;4.510;2023-06-14T01:15:30;100771.47;;;16.24;100.00
27014;BME280;14556;52.222;4.510;2023-06-14T01:17:58;100778.97;;;16.22;100.00
27014;BME280;14556;52.222;4.510;2023-06-14T01:20:31;100772.69;;;16.16;100.00
27014;BME280;14556;52.222;4.510;2023-06-14T01:22:59;100779.13;;;16.15;100.00
27014;BME280;14556;52.222;4.510;2023-06-14T01:25:26;100778.78;;;16.11;100.00
27014;BME280;14556;52.222;4.510;2023-06-14T01:27:56;100780.56;;;16.05;100.00
27014;BME280;14556;52.222;4.510;2023-06-14T01:30:24;100770.56;;;16.06;100.00
27014;BME280;14556;52.222;4.510;2023-06-14T01:32:55;100763.19;;;16.01;100.00
27014;BME280;14556;52.222;4.510;2023-06-14T01:35:22;100776.69;;;16.01;100.00
27014;BME280;14556;52.222;4.510;2023-06-14T01:37:49;100777.28;;;16.03;100.00
27014;BME280;14556;52.222;4.510;2023-06-14T01:40:19;100778.78;;;15.99;100.00
27014;BME280;14556;52.222;4.510;2023-06-14T01:42:47;100781.50;;;15.99;100.00
27014;BME280;14556;52.222;4.510;2023-06-14T01:45:15;100778.41;;;15.95;100.00
27014;BME280;14556;52.222;4.510;2023-06-14T01:47:44;100766.59;;;15.85;100.00
27014;BME280;14556;52.222;4.510;2023-06-14T01:50:11;100768.47;;;15.84;100.00
27014;BME280;14556;52.222;4.510;2023-06-14T01:52:38;100784.88;;;15.82;100.00
27014;BME280;14556;52.222;4.510;2023-06-14T01:55:05;100774.22;;;15.76;100.00
27014;BME280;14556;52.222;4.510;2023-06-14T01:57:32;100777.97;;;15.75;100.00
27014;BME280;14556;52.222;4.510;2023-06-14T01:59:58;100781.97;;;15.72;100.00
27014;BME280;14556;52.222;4.510;2023-06-14T02:02:25;100768.84;;;15.64;100.00
27014;BME280;14556;52.222;4.510;2023-06-14T02:04:52;100780.78;;;15.68;100.00
27014;BME280;14556;52.222;4.510;2023-06-14T02:07:18;100776.00;;;15.58;100.00
27014;BME280;14556;52.222;4.510;2023-06-14T02:09:45;100777.72;;;15.52;100.00
27014;BME280;14556;52.222;4.510;2023-06-14T02:12:11;100764.13;;;15.47;100.00
27014;BME280;14556;52.222;4.510;2023-06-14T02:14:38;100771.75;;;15.50;100.00
27014;BME280;14556;52.222;4.510;2023-06-14T02:17:05;100775.97;;;15.46;100.00
27014;BME280;14556;52.222;4.510;2023-06-14T02:19:32;100761.44;;;15.35;100.00
27014;BME280;14556;52.222;4.510;2023-06-14T02:21:59;100779.00;;;15.38;100.00
27014;BME280;14556;52.222;4.510;2023-06-14T02:24:26;100775.97;;;15.34;100.00
27014;BME280;14556;52.222;4.510;2023-06-14T02:26:53;100774.91;;;15.35;100.00
27014;BME280;14556;52.222;4.510;2023-06-14T02:29:19;100774.31;;;15.33;100.00
27014;BME280;14556;52.222;4.510;2023-06-14T02:31:46;100771.03;;;15.31;100.00
27014;BME280;14556;52.222;4.510;2023-06-14T02:34:15;100771.25;;;15.29;100.00
27014;BME280;14556;52.222;4.510;2023-06-14T02:36:43;100771.97;;;15.25;100.00
27014;BME280;14556;52.222;4.510;2023-06-14T02:39:11;100767.16;;;15.15;100.00
27014;BME280;14556;52.222;4.510;2023-06-14T02:41:38;100774.03;;;15.10;100.00
27014;BME280;14556;52.222;4.510;2023-06-14T02:44:05;100780.03;;;15.13;100.00
27014;BME280;14556;52.222;4.510;2023-06-14T02:46:32;100775.53;;;15.06;100.00
27014;BME280;14556;52.222;4.510;2023-06-14T02:48:59;100778.09;;;15.01;100.00
27014;BME280;14556;52.222;4.510;2023-06-14T02:51:26;100775.28;;;14.96;100.00
27014;BME280;14556;52.222;4.510;2023-06-14T02:53:52;100779.75;;;14.90;100.00
27014;BME280;14556;52.222;4.510;2023-06-14T02:56:19;100779.00;;;14.83;100.00
27014;BME280;14556;52.222;4.510;2023-06-14T02:58:45;100788.72;;;14.84;100.00
27014;BME280;14556;52.222;4.510;2023-06-14T03:01:12;100789.38;;;14.79;100.00
27014;BME280;14556;52.222;4.510;2023-06-14T03:03:40;100790.03;;;14.74;100.00
27014;BME280;14556;52.222;4.510;2023-06-14T03:06:06;100787.22;;;14.69;100.00
27014;BME280;14556;52.222;4.510;2023-06-14T03:08:34;100802.81;;;14.67;100.00
27014;BME280;14556;52.222;4.510;2023-06-14T03:11:05;100791.75;;;14.57;100.00
27014;BME280;14556;52.222;4.510;2023-06-14T03:13:32;100795.63;;;14.61;100.00
27014;BME280;14556;52.222;4.510;2023-06-14T03:16:01;100805.91;;;14.64;100.00
27014;BME280;14556;52.222;4.510;2023-06-14T03:18:30;100801.81;;;14.61;100.00
27014;BME280;14556;52.222;4.510;2023-06-14T03:21:02;100806.97;;;14.63;100.00
27014;BME280;14556;52.222;4.510;2023-06-14T03:23:29;100811.53;;;14.62;100.00
27014;BME280;14556;52.222;4.510;2023-06-14T03:25:56;100809.06;;;14.61;100.00
27014;BME280;14556;52.222;4.510;2023-06-14T03:28:23;100811.38;;;14.57;100.00
27014;BME280;14556;52.222;4.510;2023-06-14T03:30:49;100808.78;;;14.50;100.00
27014;BME280;14556;52.222;4.510;2023-06-14T03:33:16;100813.94;;;14.52;100.00
27014;BME280;14556;52.222;4.510;2023-06-14T03:35:43;100818.16;;;14.48;100.00
27014;BME280;14556;52.222;4.510;2023-06-14T03:38:10;100801.34;;;14.34;100.00
27014;BME280;14556;52.222;4.510;2023-06-14T03:40:36;100821.13;;;14.39;100.00
27014;BME280;14556;52.222;4.510;2023-06-14T03:43:03;100829.19;;;14.39;100.00
27014;BME280;14556;52.222;4.510;2023-06-14T03:45:29;100832.72;;;14.40;100.00
27014;BME280;14556;52.222;4.510;2023-06-14T03:47:56;100830.25;;;14.38;100.00
27014;BME280;14556;52.222;4.510;2023-06-14T03:50:23;100829.81;;;14.42;100.00
27014;BME280;14556;52.222;4.510;2023-06-14T03:52:49;100829.19;;;14.39;100.00
27014;BME280;14556;52.222;4.510;2023-06-14T03:55:16;100823.63;;;14.41;100.00
27014;BME280;14556;52.222;4.510;2023-06-14T03:57:46;100831.22;;;14.44;100.00
27014;BME280;14556;52.222;4.510;2023-06-14T04:00:13;100832.25;;;14.43;100.00
27014;BME280;14556;52.222;4.510;2023-06-14T04:02:39;100835.78;;;14.44;100.00
27014;BME280;14556;52.222;4.510;2023-06-14T04:05:06;100828.16;;;14.41;100.00
27014;BME280;14556;52.222;4.510;2023-06-14T04:07:35;100832.19;;;14.50;100.00
27014;BME280;14556;52.222;4.510;2023-06-14T04:10:07;100832.19;;;14.50;100.00
27014;BME280;14556;52.222;4.510;2023-06-14T04:12:36;100837.56;;;14.50;100.00
27014;BME280;14556;52.222;4.510;2023-06-14T04:15:03;100836.75;;;14.49;100.00
27014;BME280;14556;52.222;4.510;2023-06-14T04:17:46;100846.09;;;14.47;100.00
27014;BME280;14556;52.222;4.510;2023-06-14T04:20:12;100845.16;;;14.41;100.00
27014;BME280;14556;52.222;4.510;2023-06-14T04:22:39;100837.25;;;14.39;100.00
27014;BME280;14556;52.222;4.510;2023-06-14T04:25:07;100841.53;;;14.47;100.00
27014;BME280;14556;52.222;4.510;2023-06-14T04:27:34;100850.59;;;14.53;100.00
27014;BME280;14556;52.222;4.510;2023-06-14T04:30:03;100859.03;;;14.57;100.00
27014;BME280;14556;52.222;4.510;2023-06-14T04:32:30;100840.19;;;14.57;100.00
27014;BME280;14556;52.222;4.510;2023-06-14T04:35:00;100842.81;;;14.63;100.00
27014;BME280;14556;52.222;4.510;2023-06-14T04:37:30;100843.84;;;14.62;100.00
27014;BME280;14556;52.222;4.510;2023-06-14T04:39:57;100856.41;;;14.69;100.00
27014;BME280;14556;52.222;4.510;2023-06-14T04:42:24;100850.56;;;14.72;100.00
27014;BME280;14556;52.222;4.510;2023-06-14T04:44:51;100849.50;;;14.73;100.00
27014;BME280;14556;52.222;4.510;2023-06-14T04:47:22;100841.53;;;14.85;100.00
27014;BME280;14556;52.222;4.510;2023-06-14T04:49:51;100854.53;;;14.88;100.00
27014;BME280;14556;52.222;4.510;2023-06-14T04:52:19;100853.84;;;14.93;100.00
27014;BME280;14556;52.222;4.510;2023-06-14T04:54:47;100849.31;;;14.93;100.00
27014;BME280;14556;52.222;4.510;2023-06-14T04:57:15;100848.59;;;14.98;100.00
27014;BME280;14556;52.222;4.510;2023-06-14T04:59:43;100843.25;;;15.10;100.00
27014;BME280;14556;52.222;4.510;2023-06-14T05:02:11;100847.75;;;15.16;100.00
27014;BME280;14556;52.222;4.510;2023-06-14T05:04:38;100846.31;;;15.14;100.00
27014;BME280;14556;52.222;4.510;2023-06-14T05:07:08;100848.69;;;15.22;100.00
27014;BME280;14556;52.222;4.510;2023-06-14T05:09:36;100839.56;;;15.23;100.00
27014;BME280;14556;52.222;4.510;2023-06-14T05:12:03;100854.69;;;15.36;100.00
27014;BME280;14556;52.222;4.510;2023-06-14T05:14:30;100851.31;;;15.41;100.00
27014;BME280;14556;52.222;4.510;2023-06-14T05:16:56;100845.94;;;15.41;100.00
27014;BME280;14556;52.222;4.510;2023-06-14T05:19:23;100852.72;;;15.43;100.00
27014;BME280;14556;52.222;4.510;2023-06-14T05:21:50;100857.78;;;15.52;100.00
27014;BME280;14556;52.222;4.510;2023-06-14T05:24:16;100856.50;;;15.54;100.00
27014;BME280;14556;52.222;4.510;2023-06-14T05:26:46;100859.91;;;15.62;100.00
27014;BME280;14556;52.222;4.510;2023-06-14T05:29:13;100859.91;;;15.62;100.00
27014;BME280;14556;52.222;4.510;2023-06-14T05:31:39;100855.69;;;15.66;100.00
27014;BME280;14556;52.222;4.510;2023-06-14T05:34:06;100861.09;;;15.78;100.00
27014;BME280;14556;52.222;4.510;2023-06-14T05:36:32;100863.47;;;15.86;100.00
27014;BME280;14556;52.222;4.510;2023-06-14T05:38:59;100858.41;;;15.90;100.00
27014;BME280;14556;52.222;4.510;2023-06-14T05:41:27;100864.97;;;15.94;100.00
27014;BME280;14556;52.222;4.510;2023-06-14T05:43:54;100861.78;;;15.97;100.00
27014;BME280;14556;52.222;4.510;2023-06-14T05:46:21;100859.41;;;16.07;100.00
27014;BME280;14556;52.222;4.510;2023-06-14T05:48:51;100855.63;;;16.09;100.00
27014;BME280;14556;52.222;4.510;2023-06-14T05:51:18;100863.47;;;16.22;100.00
27014;BME280;14556;52.222;4.510;2023-06-14T05:53:48;100860.50;;;16.36;100.00
27014;BME280;14556;52.222;4.510;2023-06-14T05:56:16;100860.97;;;16.44;100.00
27014;BME280;14556;52.222;4.510;2023-06-14T05:58:46;100874.47;;;16.57;100.00
27014;BME280;14556;52.222;4.510;2023-06-14T06:01:13;100867.03;;;16.64;100.00
27014;BME280;14556;52.222;4.510;2023-06-14T06:03:41;100869.72;;;16.64;100.00
27014;BME280;14556;52.222;4.510;2023-06-14T06:06:08;100873.13;;;16.71;100.00
27014;BME280;14556;52.222;4.510;2023-06-14T06:08:34;100870.88;;;16.80;99.20
27014;BME280;14556;52.222;4.510;2023-06-14T06:11:01;100877.78;;;16.88;100.00
27014;BME280;14556;52.222;4.510;2023-06-14T06:13:28;100874.94;;;16.95;96.31
27014;BME280;14556;52.222;4.510;2023-06-14T06:15:54;100864.22;;;17.00;90.05
27014;BME280;14556;52.222;4.510;2023-06-14T06:18:22;100872.19;;;17.07;84.67
27014;BME280;14556;52.222;4.510;2023-06-14T06:20:49;100880.78;;;17.03;84.26
27014;BME280;14556;52.222;4.510;2023-06-14T06:23:16;100865.56;;;17.14;79.37
27014;BME280;14556;52.222;4.510;2023-06-14T06:25:43;100871.41;;;17.23;79.64
27014;BME280;14556;52.222;4.510;2023-06-14T06:28:09;100863.31;;;17.23;76.19
27014;BME280;14556;52.222;4.510;2023-06-14T06:30:36;100870.69;;;17.28;75.55
27014;BME280;14556;52.222;4.510;2023-06-14T06:33:02;100876.88;;;17.40;73.47
27014;BME280;14556;52.222;4.510;2023-06-14T06:35:30;100876.38;;;17.44;73.66
27014;BME280;14556;52.222;4.510;2023-06-14T06:37:57;100867.44;;;17.43;72.75
27014;BME280;14556;52.222;4.510;2023-06-14T06:40:23;100883.91;;;17.76;68.17
27014;BME280;14556;52.222;4.510;2023-06-14T06:42:50;100884.66;;;17.88;68.10
27014;BME280;14556;52.222;4.510;2023-06-14T06:45:16;100886.13;;;17.96;68.32
27014;BME280;14556;52.222;4.510;2023-06-14T06:47:43;100884.47;;;17.95;66.95
27014;BME280;14556;52.222;4.510;2023-06-14T06:50:10;100887.25;;;18.00;67.17
27014;BME280;14556;52.222;4.510;2023-06-14T06:52:36;100896.97;;;18.14;67.44
27014;BME280;14556;52.222;4.510;2023-06-14T06:55:03;100890.13;;;18.11;65.48
27014;BME280;14556;52.222;4.510;2023-06-14T06:57:29;100890.69;;;18.13;65.37
27014;BME280;14556;52.222;4.510;2023-06-14T06:59:57;100900.16;;;18.10;66.11
27014;BME280;14556;52.222;4.510;2023-06-14T07:02:24;100897.03;;;18.19;64.92
27014;BME280;14556;52.222;4.510;2023-06-14T07:04:51;100909.03;;;18.23;65.53
27014;BME280;14556;52.222;4.510;2023-06-14T07:07:17;100912.03;;;18.27;65.55
27014;BME280;14556;52.222;4.510;2023-06-14T07:09:44;100918.47;;;18.43;65.67
27014;BME280;14556;52.222;4.510;2023-06-14T07:12:12;100915.69;;;18.38;64.70
27014;BME280;14556;52.222;4.510;2023-06-14T07:14:38;100922.34;;;18.47;64.46
27014;BME280;14556;52.222;4.510;2023-06-14T07:17:05;100927.56;;;18.54;64.73
27014;BME280;14556;52.222;4.510;2023-06-14T07:19:32;100922.53;;;18.63;64.75
27014;BME280;14556;52.222;4.510;2023-06-14T07:21:59;100930.59;;;18.80;64.51
27014;BME280;14556;52.222;4.510;2023-06-14T07:24:25;100930.00;;;19.00;65.18
27014;BME280;14556;52.222;4.510;2023-06-14T07:26:52;100931.41;;;19.03;63.56
27014;BME280;14556;52.222;4.510;2023-06-14T07:29:20;100923.72;;;18.94;64.04
27014;BME280;14556;52.222;4.510;2023-06-14T07:31:47;100928.13;;;19.01;63.47
27014;BME280;14556;52.222;4.510;2023-06-14T07:34:14;100925.03;;;19.14;63.33
27014;BME280;14556;52.222;4.510;2023-06-14T07:36:41;100932.59;;;19.35;61.70
27014;BME280;14556;52.222;4.510;2023-06-14T07:39:10;100923.53;;;19.24;62.39
27014;BME280;14556;52.222;4.510;2023-06-14T07:41:37;100924.56;;;19.45;62.35
27014;BME280;14556;52.222;4.510;2023-06-14T07:44:04;100942.28;;;19.58;61.56
27014;BME280;14556;52.222;4.510;2023-06-14T07:46:31;100925.91;;;19.48;60.08
27014;BME280;14556;52.222;4.510;2023-06-14T07:48:57;100937.38;;;19.55;60.63
27014;BME280;14556;52.222;4.510;2023-06-14T07:51:24;100939.09;;;19.61;60.39
27014;BME280;14556;52.222;4.510;2023-06-14T07:53:50;100941.63;;;19.73;60.40
27014;BME280;14556;52.222;4.510;2023-06-14T07:56:17;100933.88;;;19.87;60.65
27014;BME280;14556;52.222;4.510;2023-06-14T07:58:44;100935.78;;;19.92;59.84
27014;BME280;14556;52.222;4.510;2023-06-14T08:01:10;100948.25;;;19.88;59.70
27014;BME280;14556;52.222;4.510;2023-06-14T08:03:37;100953.38;;;19.84;61.09
27014;BME280;14556;52.222;4.510;2023-06-14T08:06:04;100957.09;;;20.05;60.31
27014;BME280;14556;52.222;4.510;2023-06-14T08:08:31;100953.16;;;20.24;60.34
27014;BME280;14556;52.222;4.510;2023-06-14T08:10:58;100944.75;;;20.25;57.96
27014;BME280;14556;52.222;4.510;2023-06-14T08:13:24;100941.69;;;20.16;58.84
27014;BME280;14556;52.222;4.510;2023-06-14T08:15:51;100944.81;;;20.36;58.34
27014;BME280;14556;52.222;4.510;2023-06-14T08:18:18;100940.16;;;20.31;58.52
27014;BME280;14556;52.222;4.510;2023-06-14T08:20:44;100933.16;;;20.40;57.84
27014;BME280;14556;52.222;4.510;2023-06-14T08:23:11;100936.78;;;20.62;56.95
27014;BME280;14556;52.222;4.510;2023-06-14T08:25:37;100938.19;;;20.70;57.23
27014;BME280;14556;52.222;4.510;2023-06-14T08:28:04;100941.75;;;20.81;55.72
27014;BME280;14556;52.222;4.510;2023-06-14T08:30:31;100938.88;;;20.98;55.82
27014;BME280;14556;52.222;4.510;2023-06-14T08:32:57;100941.66;;;21.24;54.37
27014;BME280;14556;52.222;4.510;2023-06-14T08:35:39;100940.31;;;21.37;54.92
27014;BME280;14556;52.222;4.510;2023-06-14T08:38:06;100923.97;;;21.26;55.03
27014;BME280;14556;52.222;4.510;2023-06-14T08:40:37;100933.53;;;21.40;53.19
27014;BME280;14556;52.222;4.510;2023-06-14T08:43:04;100934.88;;;21.42;52.11
27014;BME280;14556;52.222;4.510;2023-06-14T08:45:31;100927.53;;;21.27;52.29
27014;BME280;14556;52.222;4.510;2023-06-14T08:47:58;100926.44;;;21.49;52.69
27014;BME280;14556;52.222;4.510;2023-06-14T08:50:27;100945.56;;;21.85;52.02
27014;BME280;14556;52.222;4.510;2023-06-14T08:52:59;100932.44;;;22.03;51.17
27014;BME280;14556;52.222;4.510;2023-06-14T08:55:29;100943.31;;;22.19;51.69
27014;BME280;14556;52.222;4.510;2023-06-14T08:57:59;100941.44;;;22.14;50.88
27014;BME280;14556;52.222;4.510;2023-06-14T09:00:27;100938.91;;;22.39;51.06
27014;BME280;14556;52.222;4.510;2023-06-14T09:02:54;100941.00;;;22.73;49.65
27014;BME280;14556;52.222;4.510;2023-06-14T09:05:25;100943.47;;;22.75;49.27
27014;BME280;14556;52.222;4.510;2023-06-14T09:07:53;100934.72;;;22.83;49.02
27014;BME280;14556;52.222;4.510;2023-06-14T09:10:21;100930.53;;;23.47;47.56
27014;BME280;14556;52.222;4.510;2023-06-14T09:12:48;100950.25;;;23.73;47.62
27014;BME280;14556;52.222;4.510;2023-06-14T09:15:15;100946.47;;;23.69;46.84
27014;BME280;14556;52.222;4.510;2023-06-14T09:17:42;100954.53;;;24.14;47.07
27014;BME280;14556;52.222;4.510;2023-06-14T09:20:09;100949.72;;;24.36;45.40
27014;BME280;14556;52.222;4.510;2023-06-14T09:22:37;100940.69;;;24.35;43.74
27014;BME280;14556;52.222;4.510;2023-06-14T09:25:04;100947.19;;;24.39;41.80
27014;BME280;14556;52.222;4.510;2023-06-14T09:27:32;100949.84;;;24.45;44.28
27014;BME280;14556;52.222;4.510;2023-06-14T09:30:04;100939.13;;;23.94;44.10
27014;BME280;14556;52.222;4.510;2023-06-14T09:32:39;100940.09;;;24.38;45.33
27014;BME280;14556;52.222;4.510;2023-06-14T09:35:07;100941.81;;;24.78;43.14
27014;BME280;14556;52.222;4.510;2023-06-14T09:37:35;100942.09;;;25.20;42.07
27014;BME280;14556;52.222;4.510;2023-06-14T09:40:03;100934.25;;;25.33;40.61
27014;BME280;14556;52.222;4.510;2023-06-14T09:42:30;100934.69;;;25.40;40.63
27014;BME280;14556;52.222;4.510;2023-06-14T09:44:57;100945.13;;;25.38;39.21
27014;BME280;14556;52.222;4.510;2023-06-14T09:47:24;100928.25;;;25.11;38.71
27014;BME280;14556;52.222;4.510;2023-06-14T09:49:51;100941.00;;;25.02;37.74
27014;BME280;14556;52.222;4.510;2023-06-14T09:52:21;100940.19;;;25.02;38.86
27014;BME280;14556;52.222;4.510;2023-06-14T09:54:49;100935.59;;;25.35;38.13
27014;BME280;14556;52.222;4.510;2023-06-14T09:57:20;100932.59;;;25.51;37.72
27014;BME280;14556;52.222;4.510;2023-06-14T09:59:49;100943.09;;;25.63;39.04
27014;BME280;14556;52.222;4.510;2023-06-14T10:02:24;100944.13;;;25.67;38.04
27014;BME280;14556;52.222;4.510;2023-06-14T10:05:05;100943.28;;;25.14;38.81
27014;BME280;14556;52.222;4.510;2023-06-14T10:07:38;100941.56;;;25.18;37.68
27014;BME280;14556;52.222;4.510;2023-06-14T10:10:07;100933.34;;;24.80;37.21
27014;BME280;14556;52.222;4.510;2023-06-14T10:12:34;100930.50;;;25.09;36.77
27014;BME280;14556;52.222;4.510;2023-06-14T10:15:01;100948.22;;;25.31;37.13
27014;BME280;14556;52.222;4.510;2023-06-14T10:17:40;100933.28;;;25.23;36.03
27014;BME280;14556;52.222;4.510;2023-06-14T10:20:34;100939.13;;;25.17;36.39
27014;BME280;14556;52.222;4.510;2023-06-14T10:23:11;100943.94;;;25.44;34.76
27014;BME280;14556;52.222;4.510;2023-06-14T10:25:39;100940.25;;;25.35;35.30
27014;BME280;14556;52.222;4.510;2023-06-14T10:28:20;100927.91;;;25.71;35.27
27014;BME280;14556;52.222;4.510;2023-06-14T10:31:03;100936.06;;;25.90;34.87
27014;BME280;14556;52.222;4.510;2023-06-14T10:33:56;100942.78;;;25.84;35.62
27014;BME280;14556;52.222;4.510;2023-06-14T10:41:28;100930.81;;;26.08;33.16
27014;BME280;14556;52.222;4.510;2023-06-14T10:46:45;100936.25;;;25.80;34.29
27014;BME280;14556;52.222;4.510;2023-06-14T10:49:16;100934.94;;;25.77;34.71
27014;BME280;14556;52.222;4.510;2023-06-14T10:51:50;100935.91;;;25.48;34.91
27014;BME280;14556;52.222;4.510;2023-06-14T10:54:17;100959.00;;;25.61;36.34
27014;BME280;14556;52.222;4.510;2023-06-14T10:56:47;100953.31;;;25.38;35.06
27014;BME280;14556;52.222;4.510;2023-06-14T10:59:16;100939.34;;;25.40;34.28
27014;BME280;14556;52.222;4.510;2023-06-14T11:04:23;100952.50;;;25.18;34.81
27014;BME280;14556;52.222;4.510;2023-06-14T11:07:10;100938.34;;;25.16;34.95
27014;BME280;14556;52.222;4.510;2023-06-14T11:10:10;100948.97;;;25.18;35.15
27014;BME280;14556;52.222;4.510;2023-06-14T11:12:36;100934.44;;;24.79;34.90
27014;BME280;14556;52.222;4.510;2023-06-14T11:15:05;100938.91;;;24.69;35.43
27014;BME280;14556;52.222;4.510;2023-06-14T11:17:33;100927.09;;;24.98;35.15
27014;BME280;14556;52.222;4.510;2023-06-14T11:20:12;100940.59;;;25.47;35.11
27014;BME280;14556;52.222;4.510;2023-06-14T11:22:46;100936.09;;;25.38;37.38
27014;BME280;14556;52.222;4.510;2023-06-14T11:25:14;100940.28;;;25.68;34.08
27014;BME280;14556;52.222;4.510;2023-06-14T11:27:44;100937.09;;;25.61;34.04
27014;BME280;14556;52.222;4.510;2023-06-14T11:30:13;100920.34;;;25.29;34.70
27014;BME280;14556;52.222;4.510;2023-06-14T11:32:40;100926.56;;;24.96;34.36
27014;BME280;14556;52.222;4.510;2023-06-14T11:35:08;100925.44;;;24.97;34.67
27014;BME280;14556;52.222;4.510;2023-06-14T11:37:36;100924.72;;;25.11;34.51
27014;BME280;14556;52.222;4.510;2023-06-14T11:40:08;100910.28;;;25.25;34.65
27014;BME280;14556;52.222;4.510;2023-06-14T11:42:36;100923.44;;;25.42;34.83
27014;BME280;14556;52.222;4.510;2023-06-14T11:45:05;100922.28;;;25.29;34.42
27014;BME280;14556;52.222;4.510;2023-06-14T11:47:36;100923.06;;;25.29;35.40
27014;BME280;14556;52.222;4.510;2023-06-14T11:50:04;100919.53;;;25.29;35.33
27014;BME280;14556;52.222;4.510;2023-06-14T11:52:32;100920.69;;;25.42;34.51
27014;BME280;14556;52.222;4.510;2023-06-14T11:54:59;100920.47;;;25.38;35.49
27014;BME280;14556;52.222;4.510;2023-06-14T11:57:26;100930.81;;;25.41;33.91
27014;BME280;14556;52.222;4.510;2023-06-14T11:59:54;100920.94;;;25.07;35.44
27014;BME280;14556;52.222;4.510;2023-06-14T12:02:21;100923.31;;;24.94;35.20
27014;BME280;14556;52.222;4.510;2023-06-14T12:04:50;100917.34;;;24.87;34.16
27014;BME280;14556;52.222;4.510;2023-06-14T12:07:18;100913.63;;;25.21;34.56
27014;BME280;14556;52.222;4.510;2023-06-14T12:12:25;100916.75;;;25.48;33.19
27014;BME280;14556;52.222;4.510;2023-06-14T12:14:55;100915.09;;;24.94;34.23
27014;BME280;14556;52.222;4.510;2023-06-14T12:17:22;100919.69;;;25.18;35.46
27014;BME280;14556;52.222;4.510;2023-06-14T12:19:49;100916.97;;;25.52;33.73
27014;BME280;14556;52.222;4.510;2023-06-14T12:22:19;100909.47;;;25.05;34.24
27014;BME280;14556;52.222;4.510;2023-06-14T12:24:46;100923.09;;;25.10;35.62
27014;BME280;14556;52.222;4.510;2023-06-14T12:27:13;100930.13;;;24.97;34.65
27014;BME280;14556;52.222;4.510;2023-06-14T12:29:42;100908.00;;;24.93;34.77
27014;BME280;14556;52.222;4.510;2023-06-14T12:32:11;100919.09;;;25.02;34.90
27014;BME280;14556;52.222;4.510;2023-06-14T12:34:38;100927.38;;;25.35;34.64
27014;BME280;14556;52.222;4.510;2023-06-14T12:37:05;100926.63;;;25.30;35.87
27014;BME280;14556;52.222;4.510;2023-06-14T12:39:33;100930.13;;;25.16;36.37
27014;BME280;14556;52.222;4.510;2023-06-14T12:42:02;100923.16;;;25.05;36.47
27014;BME280;14556;52.222;4.510;2023-06-14T12:44:30;100927.03;;;24.79;36.96
27014;BME280;14556;52.222;4.510;2023-06-14T12:47:00;100928.06;;;24.83;37.49
27014;BME280;14556;52.222;4.510;2023-06-14T12:49:26;100936.47;;;25.11;36.71
27014;BME280;14556;52.222;4.510;2023-06-14T12:51:53;100927.25;;;25.27;37.34
27014;BME280;14556;52.222;4.510;2023-06-14T12:54:19;100937.00;;;25.14;36.72
27014;BME280;14556;52.222;4.510;2023-06-14T12:57:06;100931.81;;;25.31;35.58
27014;BME280;14556;52.222;4.510;2023-06-14T12:59:32;100926.03;;;25.14;36.17
27014;BME280;14556;52.222;4.510;2023-06-14T13:02:12;100930.78;;;25.08;36.94
27014;BME280;14556;52.222;4.510;2023-06-14T13:04:39;100931.28;;;25.10;37.33
27014;BME280;14556;52.222;4.510;2023-06-14T13:07:05;100931.91;;;25.07;36.35